Time;durP1;ratioP1;P1;durP2;ratioP2;P2;SDS_P1;SDS_P2;PMS_P1;PMS_P2;Temp;Humidity;BMP_temperature;BMP_pressure;BME280_temperature;BME280_humidity;BME280_pressure;Samples;Min_cycle;Max_cycle;Signal;HPM_P1;HPM_P2
2022/04/23 00:00:15;;;;;;;7.38;4.78;;;11.10;99.90;;;;;;5103443;28;20502;-73
2022/04/23 00:02:42;;;;;;;8.25;4.68;;;11.10;99.90;;;;;;5079830;28;20043;-73
2022/04/23 00:05:09;;;;;;;6.32;4.30;;;11.10;99.90;;;;;;5106050;28;20047;-73
2022/04/23 00:07:34;;;;;;;7.50;4.20;;;11.00;99.90;;;;;;5093079;28;20044;-73
2022/04/23 00:10:00;;;;;;;5.43;4.00;;;11.00;99.90;;;;;;5087437;28;20071;-73
2022/04/23 00:12:26;;;;;;;7.15;4.47;;;10.90;99.90;;;;;;5090691;28;20101;-73
2022/04/23 00:14:53;;;;;;;9.75;4.80;;;10.90;99.90;;;;;;5069860;28;20063;-72
2022/04/23 00:17:19;;;;;;;9.23;4.95;;;10.90;99.90;;;;;;5092183;28;20040;-74
2022/04/23 00:19:46;;;;;;;6.60;4.97;;;10.80;99.90;;;;;;5072533;28;20051;-73
2022/04/23 00:22:13;;;;;;;8.27;4.72;;;10.80;99.90;;;;;;5101939;28;20179;-74
2022/04/23 00:24:39;;;;;;;6.32;4.38;;;10.80;99.90;;;;;;5093456;28;20498;-73
2022/04/23 00:27:06;;;;;;;6.15;4.03;;;10.70;99.90;;;;;;5097389;28;20063;-73
2022/04/23 00:29:31;;;;;;;6.22;4.32;;;10.70;99.90;;;;;;5099685;28;20054;-73
2022/04/23 00:31:57;;;;;;;7.45;4.97;;;10.60;99.90;;;;;;5088806;28;20040;-72
2022/04/23 00:34:23;;;;;;;10.82;5.28;;;10.60;99.90;;;;;;5076559;28;20055;-72
2022/04/23 00:36:48;;;;;;;9.38;5.40;;;10.60;99.90;;;;;;5094747;28;20040;-75
2022/04/23 00:39:14;;;;;;;9.02;5.50;;;10.60;99.90;;;;;;5087586;28;20087;-75
2022/04/23 00:41:46;;;;;;;7.72;5.20;;;10.60;99.90;;;;;;5089748;28;20044;-76
2022/04/23 00:44:13;;;;;;;9.02;5.82;;;10.60;99.90;;;;;;5086581;28;20060;-77
2022/04/23 00:46:39;;;;;;;8.52;5.40;;;10.60;99.90;;;;;;5073085;28;20040;-76
2022/04/23 00:49:06;;;;;;;10.50;5.93;;;10.60;99.90;;;;;;5098138;28;20523;-76
2022/04/23 00:51:32;;;;;;;8.13;5.55;;;10.60;99.90;;;;;;5066875;28;20093;-76
2022/04/23 00:54:04;;;;;;;7.32;5.40;;;10.60;99.90;;;;;;5109708;28;20438;-76
2022/04/23 00:56:31;;;;;;;10.07;6.30;;;10.50;99.90;;;;;;5090173;28;20043;-77
2022/04/23 00:58:57;;;;;;;13.15;7.22;;;10.50;99.90;;;;;;5088498;28;20051;-77
2022/04/23 01:01:24;;;;;;;8.05;5.93;;;10.60;99.90;;;;;;5095999;28;20044;-76
2022/04/23 01:03:57;;;;;;;8.65;6.15;;;10.50;99.90;;;;;;5102844;28;20051;-76
2022/04/23 01:06:24;;;;;;;10.02;6.18;;;10.50;99.90;;;;;;5096121;28;20036;-76
2022/04/23 01:08:50;;;;;;;9.07;5.82;;;10.50;99.90;;;;;;5097629;28;20376;-76
2022/04/23 01:11:16;;;;;;;9.25;5.80;;;10.50;99.90;;;;;;5068453;28;20048;-76
2022/04/23 01:13:43;;;;;;;8.65;5.70;;;10.40;99.90;;;;;;5096876;28;20043;-76
2022/04/23 01:16:09;;;;;;;9.63;5.95;;;10.40;99.90;;;;;;5071848;28;20048;-76
2022/04/23 01:18:39;;;;;;;12.35;6.78;;;10.40;99.90;;;;;;5085740;28;20505;-74
2022/04/23 01:21:05;;;;;;;8.75;6.13;;;10.40;99.90;;;;;;5084795;28;20044;-73
2022/04/23 01:23:31;;;;;;;;;;;10.40;99.90;;;;;;5084842;28;20039;-73
2022/04/23 01:25:58;;;;;;;10.20;6.53;;;10.30;99.90;;;;;;5068154;28;20350;-73
2022/04/23 01:28:25;;;;;;;9.90;6.65;;;10.30;99.90;;;;;;5071175;28;20630;-72
2022/04/23 01:30:57;;;;;;;8.80;6.18;;;10.30;99.90;;;;;;5077270;28;20050;-72
2022/04/23 01:33:22;;;;;;;8.55;6.25;;;10.30;99.90;;;;;;5081707;28;20055;-72
2022/04/23 01:35:48;;;;;;;9.38;6.72;;;10.30;99.90;;;;;;5098639;28;20039;-72
2022/04/23 01:38:14;;;;;;;8.48;6.50;;;10.30;99.90;;;;;;5071213;28;20044;-72
2022/04/23 01:40:41;;;;;;;9.93;7.13;;;10.30;99.90;;;;;;5076010;28;20044;-73
2022/04/23 01:43:08;;;;;;;;;;;10.30;99.90;;;;;;5066011;28;20044;-73
2022/04/23 01:45:34;;;;;;;10.05;6.90;;;10.20;99.90;;;;;;5089052;28;20279;-73
2022/04/23 01:47:59;;;;;;;10.18;6.60;;;10.20;99.90;;;;;;5074904;28;20048;-73
2022/04/23 01:50:25;;;;;;;11.30;6.50;;;10.20;99.90;;;;;;5075157;28;20113;-73
2022/04/23 01:52:51;;;;;;;9.88;6.65;;;10.20;99.90;;;;;;5091029;28;20051;-74
2022/04/23 01:55:17;;;;;;;11.13;6.82;;;10.10;99.90;;;;;;5076367;28;20062;-73
2022/04/23 01:57:42;;;;;;;9.80;6.55;;;10.10;99.90;;;;;;5093562;28;20036;-73
2022/04/23 02:00:10;;;;;;;10.85;6.60;;;10.10;99.90;;;;;;5074968;28;20328;-73
2022/04/23 02:02:39;;;;;;;7.55;5.70;;;10.10;99.90;;;;;;5077683;28;20066;-73
2022/04/23 02:05:06;;;;;;;10.60;6.30;;;10.10;99.90;;;;;;5084347;28;20046;-73
2022/04/23 02:07:40;;;;;;;10.30;6.63;;;10.00;99.90;;;;;;5090147;28;20041;-74
2022/04/23 02:10:08;;;;;;;10.07;8.07;;;10.00;99.90;;;;;;5092543;28;20108;-74
2022/04/23 02:12:34;;;;;;;11.82;7.90;;;10.00;99.90;;;;;;5106315;28;20054;-74
2022/04/23 02:15:00;;;;;;;9.63;7.43;;;10.00;99.90;;;;;;5094424;28;20036;-73
2022/04/23 02:17:41;;;;;;;11.32;7.80;;;10.00;99.90;;;;;;5109949;28;20054;-73
2022/04/23 02:20:09;;;;;;;9.38;6.95;;;10.00;99.90;;;;;;5096497;28;20051;-73
2022/04/23 02:22:35;;;;;;;8.63;6.40;;;10.00;99.90;;;;;;5108186;28;20086;-73
2022/04/23 02:25:01;;;;;;;11.82;7.75;;;9.90;99.90;;;;;;5086660;28;20075;-73
2022/04/23 02:27:30;;;;;;;11.48;8.30;;;9.90;99.90;;;;;;5101555;28;20089;-73
2022/04/23 02:29:55;;;;;;;9.70;6.53;;;9.90;99.90;;;;;;5075298;28;20132;-73
2022/04/23 02:32:21;;;;;;;12.85;8.07;;;9.90;99.90;;;;;;5109163;28;20130;-73
2022/04/23 02:34:47;;;;;;;9.68;7.45;;;9.90;99.90;;;;;;5082727;28;20043;-73
2022/04/23 02:37:13;;;;;;;11.80;7.40;;;9.90;99.90;;;;;;5090076;28;20052;-71
2022/04/23 02:39:39;;;;;;;9.07;6.68;;;9.90;99.90;;;;;;5101830;28;20043;-73
2022/04/23 02:42:05;;;;;;;10.98;6.50;;;9.90;99.90;;;;;;5108729;28;20375;-73
2022/04/23 02:44:32;;;;;;;11.77;7.20;;;9.80;99.90;;;;;;5099419;28;20060;-75
2022/04/23 02:46:58;;;;;;;11.38;7.38;;;9.90;99.90;;;;;;5092420;28;20391;-75
2022/04/23 02:49:24;;;;;;;9.57;7.43;;;9.80;99.90;;;;;;5092428;28;20040;-75
2022/04/23 02:51:50;;;;;;;9.45;7.32;;;9.90;99.90;;;;;;5093377;28;20498;-75
2022/04/23 02:54:17;;;;;;;9.27;7.55;;;9.90;99.90;;;;;;5073748;28;20036;-75
2022/04/23 02:56:43;;;;;;;11.20;7.57;;;9.90;99.90;;;;;;5091446;28;20116;-76
2022/04/23 02:59:08;;;;;;;9.15;6.20;;;9.90;99.90;;;;;;5074034;28;20134;-76
2022/04/23 03:01:36;;;;;;;10.93;8.02;;;9.90;99.90;;;;;;5092279;28;20139;-76
2022/04/23 03:04:02;;;;;;;12.18;7.68;;;9.90;99.90;;;;;;5090824;28;20042;-74
2022/04/23 03:06:33;;;;;;;11.95;7.43;;;9.90;99.90;;;;;;5074872;28;20039;-74
2022/04/23 03:09:02;;;;;;;10.85;7.78;;;9.90;99.90;;;;;;5079050;28;20809;-73
2022/04/23 03:11:30;;;;;;;12.55;7.53;;;9.90;99.90;;;;;;5091488;28;20048;-72
2022/04/23 03:13:56;;;;;;;9.15;6.93;;;9.90;99.90;;;;;;5087017;28;20119;-72
2022/04/23 03:16:22;;;;;;;11.65;7.72;;;9.90;99.90;;;;;;5087781;28;20056;-72
2022/04/23 03:18:48;;;;;;;10.07;7.30;;;9.90;99.90;;;;;;5096175;28;20085;-72
2022/04/23 03:21:14;;;;;;;9.80;7.03;;;9.90;99.90;;;;;;5089893;28;20044;-74
2022/04/23 03:23:41;;;;;;;10.57;6.55;;;9.90;99.90;;;;;;5108997;28;20478;-74
2022/04/23 03:26:06;;;;;;;9.38;6.63;;;9.80;99.90;;;;;;5092664;28;20036;-74
2022/04/23 03:28:32;;;;;;;8.77;7.00;;;9.80;99.90;;;;;;5071177;28;20044;-73
2022/04/23 03:30:58;;;;;;;8.30;6.75;;;9.80;99.90;;;;;;5093634;28;20088;-72
2022/04/23 03:33:23;;;;;;;9.45;7.60;;;9.80;99.90;;;;;;5102849;28;20043;-73
2022/04/23 03:35:49;;;;;;;9.60;7.30;;;9.80;99.90;;;;;;5094455;28;20066;-72
2022/04/23 03:38:16;;;;;;;7.85;6.30;;;9.80;99.90;;;;;;5106729;28;20099;-73
2022/04/23 03:40:43;;;;;;;7.57;6.35;;;9.80;99.90;;;;;;5096856;28;20091;-73
2022/04/23 03:43:08;;;;;;;10.75;7.35;;;9.70;99.90;;;;;;5105923;28;20055;-76
2022/04/23 03:45:36;;;;;;;8.68;7.07;;;9.70;99.90;;;;;;5090194;28;20044;-76
2022/04/23 03:48:02;;;;;;;8.95;7.30;;;9.70;99.90;;;;;;5063241;28;20363;-75
2022/04/23 03:50:28;;;;;;;10.68;7.38;;;9.70;99.90;;;;;;5099996;28;20051;-76
2022/04/23 03:52:56;;;;;;;10.50;7.32;;;9.70;99.90;;;;;;5074116;28;20052;-75
2022/04/23 03:55:23;;;;;;;10.43;7.88;;;9.70;99.90;;;;;;5089540;28;20052;-77
2022/04/23 03:57:50;;;;;;;10.18;7.30;;;9.70;99.90;;;;;;5095496;28;20088;-76
2022/04/23 04:00:17;;;;;;;8.55;6.75;;;9.70;99.90;;;;;;5087571;28;20118;-76
2022/04/23 04:02:44;;;;;;;14.02;8.07;;;9.60;99.90;;;;;;5089799;28;20081;-76
2022/04/23 04:05:10;;;;;;;8.55;7.28;;;9.60;99.90;;;;;;5088800;28;20410;-75
2022/04/23 04:07:42;;;;;;;10.60;7.95;;;9.60;99.90;;;;;;5099663;28;20071;-76
2022/04/23 04:10:09;;;;;;;10.20;7.40;;;9.60;99.90;;;;;;5086846;28;20046;-76
2022/04/23 04:12:35;;;;;;;10.05;7.55;;;9.50;99.90;;;;;;5102121;28;20446;-75
2022/04/23 04:15:01;;;;;;;12.27;8.05;;;9.50;99.90;;;;;;5081400;28;20210;-75
2022/04/23 04:17:27;;;;;;;8.95;7.50;;;9.50;99.90;;;;;;5086583;28;20051;-75
2022/04/23 04:19:53;;;;;;;11.57;7.47;;;9.50;99.90;;;;;;5098851;28;20035;-76
2022/04/23 04:22:21;;;;;;;10.75;8.38;;;9.50;99.90;;;;;;5099404;28;20048;-75
2022/04/23 04:24:48;;;;;;;9.13;7.80;;;9.50;99.90;;;;;;5078879;28;20058;-75
2022/04/23 04:27:14;;;;;;;8.90;7.78;;;9.40;99.90;;;;;;5102435;28;20185;-75
2022/04/23 04:29:39;;;;;;;10.18;8.40;;;9.40;99.90;;;;;;5091786;28;20120;-76
2022/04/23 04:32:07;;;;;;;11.18;8.27;;;9.40;99.90;;;;;;5095960;28;20394;-75
2022/04/23 04:34:33;;;;;;;9.68;7.78;;;9.40;99.90;;;;;;5087420;28;20136;-75
2022/04/23 04:37:03;;;;;;;;;;;9.30;99.90;;;;;;5073626;28;20040;-75
2022/04/23 04:39:29;;;;;;;9.60;8.27;;;9.30;99.90;;;;;;5089110;28;19928;-75
2022/04/23 04:41:55;;;;;;;11.02;8.00;;;9.30;99.90;;;;;;5105060;28;20363;-76
2022/04/23 04:44:20;;;;;;;9.77;7.75;;;9.30;99.90;;;;;;5074140;28;20055;-76
2022/04/23 04:46:46;;;;;;;11.20;8.55;;;9.30;99.90;;;;;;5089982;28;20561;-76
2022/04/23 04:49:12;;;;;;;10.00;8.02;;;9.30;99.90;;;;;;5071227;28;20056;-76
2022/04/23 04:51:37;;;;;;;9.43;7.82;;;9.20;99.90;;;;;;5071321;28;20044;-76
2022/04/23 04:54:07;;;;;;;9.73;7.72;;;9.20;99.90;;;;;;5076318;28;20124;-76
2022/04/23 04:56:33;;;;;;;9.15;7.10;;;9.20;99.90;;;;;;5098652;28;20394;-76
2022/04/23 04:58:59;;;;;;;;;;;9.20;99.90;;;;;;5098165;28;20502;-75
2022/04/23 05:01:25;;;;;;;11.45;8.57;;;9.20;99.90;;;;;;5077492;28;19923;-75
2022/04/23 05:03:51;;;;;;;9.18;7.95;;;9.20;99.90;;;;;;5079030;28;20126;-75
2022/04/23 05:06:17;;;;;;;;;;;9.30;99.90;;;;;;5086537;28;20056;-76
2022/04/23 05:08:43;;;;;;;8.40;7.00;;;9.20;99.90;;;;;;5109759;28;19916;-76
2022/04/23 05:11:09;;;;;;;10.38;7.93;;;9.20;99.90;;;;;;5101721;28;20032;-75
2022/04/23 05:13:35;;;;;;;10.05;7.45;;;9.20;99.90;;;;;;5088073;28;20038;-75
2022/04/23 05:16:01;;;;;;;9.88;7.72;;;9.30;99.90;;;;;;5077343;28;20126;-74
2022/04/23 05:18:27;;;;;;;9.80;8.73;;;9.30;99.90;;;;;;5086425;28;20048;-73
2022/04/23 05:20:53;;;;;;;10.50;8.43;;;9.30;99.90;;;;;;5084487;28;20036;-74
2022/04/23 05:23:19;;;;;;;10.45;8.32;;;9.30;99.90;;;;;;5070021;28;20477;-73
2022/04/23 05:25:45;;;;;;;10.23;8.48;;;9.40;99.90;;;;;;5089717;28;20059;-73
2022/04/23 05:28:10;;;;;;;9.05;7.85;;;9.40;99.90;;;;;;5084897;28;20602;-73
2022/04/23 05:30:37;;;;;;;8.85;7.78;;;9.40;99.90;;;;;;5090333;28;20387;-73
2022/04/23 05:33:06;;;;;;;8.98;7.60;;;9.40;99.90;;;;;;5088089;28;20474;-74
2022/04/23 05:35:32;;;;;;;8.75;7.80;;;9.40;99.90;;;;;;5086772;28;20080;-73
2022/04/23 05:37:58;;;;;;;8.55;6.82;;;9.50;99.90;;;;;;5069770;28;20479;-72
2022/04/23 05:40:24;;;;;;;10.05;8.43;;;9.50;99.90;;;;;;5101950;28;20059;-73
2022/04/23 05:42:50;;;;;;;11.57;8.25;;;9.50;99.90;;;;;;5075047;28;20047;-73
2022/04/23 05:45:16;;;;;;;;;;;9.60;99.90;;;;;;5087811;28;20110;-73
2022/04/23 05:47:42;;;;;;;9.70;7.03;;;9.60;99.90;;;;;;5069390;28;20386;-73
2022/04/23 05:50:09;;;;;;;11.27;8.23;;;9.60;99.90;;;;;;5088950;28;20044;-73
2022/04/23 05:52:37;;;;;;;10.70;7.75;;;9.70;99.90;;;;;;5070579;28;20083;-73
2022/04/23 05:55:05;;;;;;;8.95;7.88;;;9.70;99.90;;;;;;5087492;28;20142;-72
2022/04/23 05:57:32;;;;;;;9.73;7.40;;;9.80;99.90;;;;;;5069457;28;20487;-72
2022/04/23 05:59:57;;;;;;;8.93;7.15;;;10.10;99.90;;;;;;5095102;28;20122;-73
2022/04/23 06:02:23;;;;;;;8.90;7.10;;;10.40;99.90;;;;;;5088556;28;20131;-73
2022/04/23 06:04:49;;;;;;;8.05;6.88;;;10.50;99.90;;;;;;5095214;28;20039;-72
2022/04/23 06:07:18;;;;;;;9.27;7.47;;;10.70;99.90;;;;;;5075504;28;20069;-73
2022/04/23 06:09:45;;;;;;;8.98;7.25;;;10.90;99.90;;;;;;5070087;28;20184;-72
2022/04/23 06:12:11;;;;;;;9.02;7.07;;;11.10;99.90;;;;;;5086501;28;20083;-72
2022/04/23 06:14:37;;;;;;;8.45;6.93;;;11.30;99.90;;;;;;5086719;28;20067;-72
2022/04/23 06:17:06;;;;;;;;;;;11.40;99.90;;;;;;5089115;28;20497;-72
2022/04/23 06:19:32;;;;;;;8.38;7.35;;;11.50;99.90;;;;;;5088418;28;19923;-71
2022/04/23 06:21:59;;;;;;;10.02;6.82;;;11.60;99.90;;;;;;5072444;28;20105;-71
2022/04/23 06:24:26;;;;;;;7.50;5.85;;;11.70;99.90;;;;;;5088313;28;20039;-71
2022/04/23 06:26:51;;;;;;;;;;;11.90;99.90;;;;;;5089771;28;20047;-72
2022/04/23 06:29:20;;;;;;;9.32;7.45;;;12.00;99.90;;;;;;5088982;28;20281;-73
2022/04/23 06:31:46;;;;;;;10.10;6.90;;;12.10;99.90;;;;;;5088232;28;20130;-74
2022/04/23 06:34:11;;;;;;;11.13;7.22;;;12.00;99.90;;;;;;5089722;28;20059;-71
2022/04/23 06:36:38;;;;;;;7.78;6.93;;;12.10;99.90;;;;;;5091973;28;20127;-71
2022/04/23 06:39:04;;;;;;;8.10;6.82;;;12.20;99.90;;;;;;5072015;28;20090;-71
2022/04/23 06:41:29;;;;;;;10.05;7.70;;;12.20;99.90;;;;;;5091879;28;20044;-71
2022/04/23 06:43:55;;;;;;;9.43;7.47;;;12.20;99.90;;;;;;5083013;28;20048;-72
2022/04/23 06:46:21;;;;;;;10.57;8.00;;;12.20;99.90;;;;;;5099528;28;20096;-72
2022/04/23 06:48:46;;;;;;;10.35;7.10;;;12.30;99.90;;;;;;5088353;28;20051;-72
2022/04/23 06:51:12;;;;;;;9.80;7.15;;;12.30;99.90;;;;;;5077304;28;20066;-73
2022/04/23 06:53:38;;;;;;;8.63;6.78;;;12.40;99.90;;;;;;5085306;28;20041;-72
2022/04/23 06:56:04;;;;;;;10.15;7.72;;;12.50;99.90;;;;;;5100276;28;20197;-72
2022/04/23 06:58:30;;;;;;;8.27;7.30;;;12.60;99.90;;;;;;5082156;28;20047;-73
2022/04/23 07:00:56;;;;;;;9.43;6.97;;;12.80;99.90;;;;;;5074292;28;20044;-73
2022/04/23 07:03:22;;;;;;;9.85;7.13;;;12.80;99.90;;;;;;5067019;28;20529;-73
2022/04/23 07:05:47;;;;;;;9.63;7.30;;;12.90;99.90;;;;;;5068245;28;20489;-72
2022/04/23 07:08:13;;;;;;;10.25;7.85;;;13.00;99.90;;;;;;5090793;28;20430;-73
2022/04/23 07:10:39;;;;;;;11.80;7.60;;;13.10;99.90;;;;;;5094992;28;20492;-73
2022/04/23 07:13:05;;;;;;;9.57;7.25;;;13.10;99.90;;;;;;5090143;28;20066;-73
2022/04/23 07:15:31;;;;;;;10.18;6.90;;;13.10;99.90;;;;;;5074769;28;20042;-73
2022/04/23 07:17:57;;;;;;;9.23;7.63;;;13.40;99.90;;;;;;5091039;28;20042;-72
2022/04/23 07:20:23;;;;;;;8.77;7.32;;;13.40;99.90;;;;;;5072846;28;20040;-72
2022/04/23 07:25:35;;;;;;;12.55;7.78;;;13.70;99.90;;;;;;5082532;28;20047;-72
2022/04/23 07:28:01;;;;;;;9.18;7.18;;;13.70;99.70;;;;;;5089763;28;20101;-73
2022/04/23 07:30:27;;;;;;;;;;;13.70;99.30;;;;;;5091328;28;20036;-73
2022/04/23 07:32:54;;;;;;;7.82;6.35;;;13.70;98.90;;;;;;5088371;28;20011;-73
2022/04/23 07:38:19;;;;;;;8.43;7.05;;;13.70;99.20;;;;;;5089595;28;20470;-73
2022/04/23 07:40:50;;;;;;;7.35;6.32;;;13.80;98.80;;;;;;5074218;28;20040;-73
2022/04/23 07:43:16;;;;;;;7.28;6.25;;;14.00;98.50;;;;;;5095535;28;20068;-72
2022/04/23 07:45:44;;;;;;;8.90;6.97;;;14.00;97.80;;;;;;5087028;28;20464;-72
2022/04/23 07:48:10;;;;;;;9.07;7.20;;;14.00;96.80;;;;;;5095128;28;20038;-72
2022/04/23 07:50:38;;;;;;;8.35;6.68;;;14.10;96.70;;;;;;5064495;28;20436;-72
2022/04/23 07:53:04;;;;;;;8.02;6.57;;;14.20;97.00;;;;;;5108752;28;20491;-71
2022/04/23 07:55:37;;;;;;;8.65;6.07;;;14.30;96.50;;;;;;5089210;28;20032;-73
2022/04/23 07:58:06;;;;;;;8.07;7.18;;;14.50;96.80;;;;;;5097805;28;20469;-73
2022/04/23 08:00:34;;;;;;;9.45;7.13;;;14.50;96.00;;;;;;5089873;28;20050;-72
2022/04/23 08:03:00;;;;;;;8.52;7.28;;;14.40;94.60;;;;;;5090187;28;20481;-76
2022/04/23 08:05:26;;;;;;;8.85;6.82;;;14.40;95.50;;;;;;5089604;28;20047;-74
2022/04/23 08:07:51;;;;;;;13.07;6.95;;;14.40;95.30;;;;;;5072245;28;20040;-74
2022/04/23 08:10:17;;;;;;;9.65;7.60;;;14.30;94.40;;;;;;5089532;28;20044;-74
2022/04/23 08:12:43;;;;;;;9.13;6.65;;;14.40;94.60;;;;;;5054934;28;20490;-74
2022/04/23 08:15:11;;;;;;;7.65;6.40;;;14.60;95.00;;;;;;5090348;28;20135;-74
2022/04/23 08:17:37;;;;;;;9.73;6.80;;;14.80;95.00;;;;;;5090454;28;20072;-74
2022/04/23 08:20:04;;;;;;;10.18;6.72;;;14.80;94.20;;;;;;5089371;28;20063;-74
2022/04/23 08:22:29;;;;;;;;;;;14.80;94.10;;;;;;5074723;28;20518;-74
2022/04/23 08:24:56;;;;;;;9.02;6.95;;;14.70;93.70;;;;;;5079227;28;20345;-73
2022/04/23 08:27:22;;;;;;;9.25;7.28;;;14.50;93.20;;;;;;5090509;28;20044;-73
2022/04/23 08:32:32;;;;;;;8.75;7.53;;;14.50;93.80;;;;;;5089479;28;19990;-74
2022/04/23 08:34:58;;;;;;;9.88;6.85;;;14.60;94.00;;;;;;5089390;28;20432;-74
2022/04/23 08:37:24;;;;;;;8.10;7.22;;;14.80;94.00;;;;;;5073014;28;20091;-74
2022/04/23 08:39:50;;;;;;;;;;;14.80;93.80;;;;;;5089313;28;20044;-75
2022/04/23 08:42:17;;;;;;;9.98;7.57;;;14.90;93.80;;;;;;5068914;28;20011;-75
2022/04/23 08:44:44;;;;;;;7.72;6.88;;;14.90;93.30;;;;;;5081002;28;20139;-72
2022/04/23 08:47:11;;;;;;;8.40;6.38;;;15.00;93.30;;;;;;5090740;28;20109;-75
2022/04/23 08:49:41;;;;;;;8.90;7.35;;;15.10;93.50;;;;;;5089505;28;20035;-75
2022/04/23 08:52:18;;;;;;;10.23;6.90;;;15.10;93.10;;;;;;5091715;28;20043;-74
2022/04/23 08:54:44;;;;;;;8.38;6.28;;;15.30;93.10;;;;;;5088962;28;20036;-74
2022/04/23 08:57:10;;;;;;;7.95;6.10;;;15.40;92.70;;;;;;5089666;28;20047;-75
2022/04/23 08:59:37;;;;;;;9.25;7.07;;;15.50;92.80;;;;;;5088754;28;20086;-74
2022/04/23 09:02:09;;;;;;;8.43;7.47;;;15.40;92.00;;;;;;5072585;28;20109;-75
2022/04/23 09:04:37;;;;;;;8.80;6.88;;;15.40;92.30;;;;;;5071577;28;20048;-75
2022/04/23 09:07:03;;;;;;;8.60;7.05;;;15.40;92.70;;;;;;5089669;28;20043;-74
2022/04/23 09:09:28;;;;;;;7.30;6.45;;;15.40;92.50;;;;;;5090121;28;20560;-74
2022/04/23 09:11:56;;;;;;;8.82;6.78;;;15.50;92.60;;;;;;5091191;28;20043;-74
2022/04/23 09:14:25;;;;;;;9.95;6.80;;;15.70;92.30;;;;;;5088099;28;20036;-74
2022/04/23 09:25:11;;;;;;;8.63;7.65;;;15.70;92.40;;;;;;5088753;28;20070;-73
2022/04/23 09:27:37;;;;;;;7.93;7.07;;;15.70;92.10;;;;;;5090322;28;20032;-74
2022/04/23 09:30:08;;;;;;;7.53;6.78;;;15.80;92.30;;;;;;5089736;28;20130;-74
2022/04/23 09:32:35;;;;;;;8.20;7.20;;;16.00;92.30;;;;;;5088623;28;20145;-74
2022/04/23 09:35:09;;;;;;;8.07;7.20;;;16.00;92.00;;;;;;5087010;28;20044;-74
2022/04/23 09:40:26;;;;;;;8.88;7.60;;;15.80;91.80;;;;;;5059714;28;20124;-73
2022/04/23 09:43:03;;;;;;;8.18;6.45;;;16.00;91.80;;;;;;5071227;28;20094;-76
2022/04/23 09:45:30;;;;;;;8.77;7.15;;;16.30;92.10;;;;;;5089280;28;20047;-74
2022/04/23 09:48:17;;;;;;;8.98;7.05;;;16.40;91.30;;;;;;5087484;28;20079;-74
2022/04/23 09:50:45;;;;;;;7.82;6.40;;;16.40;91.20;;;;;;5088147;28;20135;-75
2022/04/23 09:53:16;;;;;;;9.13;6.60;;;16.40;91.30;;;;;;5086414;28;20119;-83
2022/04/23 09:55:43;;;;;;;7.43;6.55;;;16.70;91.10;;;;;;5088804;28;20047;-75
2022/04/23 09:58:10;;;;;;;7.55;6.75;;;16.80;90.90;;;;;;5088487;28;20032;-76
2022/04/23 10:00:37;;;;;;;6.72;6.03;;;16.80;89.20;;;;;;5087124;28;20399;-76
2022/04/23 10:03:07;;;;;;;6.72;5.68;;;16.90;89.10;;;;;;5094089;28;20380;-75
2022/04/23 10:05:46;;;;;;;8.80;6.95;;;17.30;88.60;;;;;;5088838;28;20088;-75
2022/04/23 10:08:15;;;;;;;7.40;6.50;;;17.00;85.80;;;;;;5106281;28;20048;-73
2022/04/23 10:10:54;;;;;;;7.57;6.40;;;17.10;85.10;;;;;;5082932;28;20119;-71
2022/04/23 10:13:22;;;;;;;6.75;6.05;;;17.20;84.10;;;;;;5074669;28;20048;-73
2022/04/23 10:15:49;;;;;;;6.13;5.38;;;17.10;83.60;;;;;;5088091;28;20119;-73
2022/04/23 10:18:15;;;;;;;;;;;17.40;84.20;;;;;;5090178;28;20032;-72
2022/04/23 10:20:52;;;;;;;6.60;5.88;;;17.50;83.90;;;;;;5090261;28;19947;-72
2022/04/23 10:23:40;;;;;;;6.65;5.95;;;17.60;84.00;;;;;;5091811;28;20366;-71
2022/04/23 10:26:35;;;;;;;6.93;6.20;;;17.70;82.40;;;;;;5091529;28;20039;-72
2022/04/23 10:29:06;;;;;;;7.75;6.57;;;17.50;81.80;;;;;;5084003;28;20055;-72
2022/04/23 10:31:31;;;;;;;6.50;5.70;;;17.40;81.70;;;;;;5100252;28;20087;-72
2022/04/23 10:33:57;;;;;;;7.10;6.20;;;17.50;82.60;;;;;;5087324;28;20059;-72
2022/04/23 10:36:23;;;;;;;6.40;5.45;;;17.50;80.80;;;;;;5107127;28;20039;-72
2022/04/23 10:39:10;;;;;;;9.48;5.85;;;17.50;80.50;;;;;;5073779;28;20490;-72
2022/04/23 10:41:35;;;;;;;6.55;5.07;;;17.60;80.70;;;;;;5091894;28;20498;-73
2022/04/23 10:44:03;;;;;;;6.28;5.32;;;17.60;78.30;;;;;;5090220;28;20062;-72
2022/04/23 10:46:37;;;;;;;6.50;4.80;;;17.70;78.30;;;;;;5088422;28;20032;-72
2022/04/23 10:49:19;;;;;;;7.22;5.32;;;17.90;79.40;;;;;;5092531;28;20491;-72
2022/04/23 10:51:52;;;;;;;6.53;4.85;;;17.90;76.90;;;;;;5091979;28;20043;-72
2022/04/23 10:54:21;;;;;;;6.13;5.38;;;18.10;75.80;;;;;;5090002;28;20052;-73
2022/04/23 10:56:57;;;;;;;4.75;4.22;;;18.10;73.90;;;;;;5075018;28;20040;-72
2022/04/23 10:59:38;;;;;;;8.23;5.20;;;18.40;74.60;;;;;;5092932;28;20447;-72
2022/04/23 11:02:06;;;;;;;7.78;4.60;;;18.50;74.20;;;;;;5091411;28;20048;-72
2022/04/23 11:04:34;;;;;;;5.20;4.68;;;18.80;73.70;;;;;;5091459;28;20079;-72
2022/04/23 11:12:33;;;;;;;6.20;4.10;;;18.40;69.70;;;;;;5092652;28;20048;-73
2022/04/23 11:15:00;;;;;;;7.85;4.82;;;18.60;69.20;;;;;;5087692;28;20071;-73
2022/04/23 11:17:53;;;;;;;6.68;4.90;;;18.40;68.10;;;;;;5092090;28;20050;-73
2022/04/23 11:20:31;;;;;;;5.13;4.63;;;18.40;68.60;;;;;;5074818;28;20502;-73
2022/04/23 11:22:59;;;;;;;8.15;5.15;;;18.60;68.40;;;;;;5091377;28;20085;-73
2022/04/23 11:25:24;;;;;;;5.70;5.15;;;18.50;66.50;;;;;;5091983;28;20374;-72
2022/04/23 11:27:50;;;;;;;;;;;18.30;67.60;;;;;;5112118;28;20040;-73
2022/04/23 11:30:29;;;;;;;5.57;4.15;;;18.50;67.50;;;;;;5095140;28;19920;-74
2022/04/23 11:33:07;;;;;;;5.97;4.45;;;18.70;67.10;;;;;;5111704;28;20077;-73
2022/04/23 11:35:33;;;;;;;7.05;4.95;;;19.00;66.50;;;;;;5111406;28;20040;-73
2022/04/23 11:37:59;;;;;;;7.32;4.55;;;18.80;66.40;;;;;;5094878;28;20100;-73
2022/04/23 11:40:28;;;;;;;;;;;18.80;66.40;;;;;;5102670;28;20394;-73
2022/04/23 11:42:54;;;;;;;7.03;4.85;;;18.80;67.90;;;;;;5091037;28;19919;-73
2022/04/23 11:45:21;;;;;;;5.80;4.55;;;18.80;65.60;;;;;;5073959;28;20052;-74
2022/04/23 11:47:47;;;;;;;5.80;4.35;;;18.90;65.10;;;;;;5092533;28;20471;-73
2022/04/23 11:50:23;;;;;;;5.22;4.28;;;19.20;65.60;;;;;;5090811;28;20116;-73
2022/04/23 11:52:58;;;;;;;5.90;4.15;;;19.20;65.70;;;;;;5074075;28;20079;-72
2022/04/23 11:55:25;;;;;;;4.80;4.22;;;19.40;65.60;;;;;;5074150;28;20441;-73
2022/04/23 11:57:59;;;;;;;5.40;4.32;;;19.60;65.80;;;;;;5066928;28;20370;-73
2022/04/23 12:00:26;;;;;;;6.50;4.47;;;19.60;65.60;;;;;;5090711;28;20176;-73
2022/04/23 12:02:53;;;;;;;5.28;4.35;;;19.40;64.90;;;;;;5089671;28;20101;-73
2022/04/23 12:05:28;;;;;;;5.55;4.68;;;19.20;64.40;;;;;;5089467;28;20455;-73
2022/04/23 12:07:55;;;;;;;7.10;4.72;;;19.00;64.10;;;;;;5092030;28;20040;-73
2022/04/23 12:10:28;;;;;;;5.88;4.57;;;19.00;64.10;;;;;;5090590;28;20039;-73
2022/04/23 12:12:56;;;;;;;4.93;4.30;;;19.00;64.00;;;;;;5090391;28;20443;-73
2022/04/23 12:15:22;;;;;;;4.43;4.03;;;19.10;64.70;;;;;;5090142;28;20123;-73
2022/04/23 12:17:50;;;;;;;4.75;4.32;;;19.20;63.60;;;;;;5094022;28;20047;-73
2022/04/23 12:20:20;;;;;;;5.72;4.45;;;19.30;63.50;;;;;;5112149;28;20050;-73
2022/04/23 12:23:00;;;;;;;5.15;4.22;;;19.40;63.80;;;;;;5089130;28;20078;-75
2022/04/23 12:25:30;;;;;;;4.78;4.30;;;19.30;63.60;;;;;;5091058;28;20039;-76
2022/04/23 12:28:03;;;;;;;4.60;3.83;;;19.30;64.00;;;;;;5089990;28;20043;-76
2022/04/23 12:42:05;;;;;;;6.30;4.57;;;19.40;62.70;;;;;;5090312;28;20044;-76
2022/04/23 12:44:52;;;;;;;9.38;4.60;;;19.30;62.50;;;;;;5065326;28;20128;-75
2022/04/23 12:47:34;;;;;;;5.03;4.03;;;19.40;63.00;;;;;;5088139;28;20048;-75
2022/04/23 12:50:06;;;;;;;4.50;3.70;;;19.40;62.50;;;;;;5088413;28;20044;-76
2022/04/23 12:52:38;;;;;;;5.10;3.85;;;19.50;62.70;;;;;;5094121;28;20040;-76
2022/04/23 12:55:27;;;;;;;4.47;3.67;;;19.50;61.60;;;;;;5092285;28;20059;-75
2022/04/23 12:58:02;;;;;;;4.85;3.83;;;19.30;61.10;;;;;;5091330;28;20123;-75
2022/04/23 13:00:32;;;;;;;5.18;3.70;;;19.30;61.30;;;;;;5097105;28;20537;-76
2022/04/23 13:03:06;;;;;;;5.82;3.80;;;19.10;60.90;;;;;;5072499;28;20111;-76
2022/04/23 13:05:32;;;;;;;5.68;3.80;;;19.30;61.10;;;;;;5089235;28;20089;-75
2022/04/23 13:10:42;;;;;;;3.72;3.20;;;19.50;60.50;;;;;;5087699;28;19977;-76
2022/04/23 13:13:08;;;;;;;;;;;19.60;60.80;;;;;;5084236;28;20373;-76
2022/04/23 13:15:35;;;;;;;4.18;3.35;;;19.70;60.40;;;;;;5068855;28;19986;-75
2022/04/23 13:18:02;;;;;;;3.95;3.00;;;19.70;60.20;;;;;;5071529;28;20495;-76
2022/04/23 13:20:28;;;;;;;3.45;2.88;;;19.70;60.00;;;;;;5072941;28;20043;-76
2022/04/23 13:22:55;;;;;;;;;;;19.80;59.80;;;;;;5089184;28;20046;-76
2022/04/23 13:25:21;;;;;;;3.30;3.00;;;19.80;59.30;;;;;;5083254;28;19970;-76
2022/04/23 13:27:47;;;;;;;3.25;2.95;;;19.80;59.70;;;;;;5077680;28;20285;-76
2022/04/23 13:30:14;;;;;;;;;;;19.90;59.90;;;;;;5087727;28;20070;-76
2022/04/23 13:32:42;;;;;;;;;;;19.80;59.20;;;;;;5089095;28;19982;-77
2022/04/23 13:35:10;;;;;;;5.20;3.20;;;19.60;59.00;;;;;;5072425;28;19993;-77